createdAt,value
2022-09-24T00:01:40.424Z,100.00
2022-09-24T00:04:10.504Z,100.00
2022-09-24T00:06:41.138Z,100.00
2022-09-24T00:09:15.091Z,100.00
2022-09-24T00:11:45.746Z,100.00
2022-09-24T00:14:23.607Z,100.00
2022-09-24T00:16:50.147Z,100.00
2022-09-24T00:19:16.711Z,100.00
2022-09-24T00:21:43.624Z,100.00
2022-09-24T00:24:34.092Z,100.00
2022-09-24T00:27:04.668Z,100.00
2022-09-24T00:29:34.413Z,100.00
2022-09-24T00:32:02.265Z,100.00
2022-09-24T00:34:31.315Z,100.00
2022-09-24T00:36:57.980Z,100.00
2022-09-24T00:39:24.539Z,100.00
2022-09-24T00:41:53.457Z,100.00
2022-09-24T00:44:45.135Z,100.00
2022-09-24T00:47:15.641Z,100.00
2022-09-24T00:49:42.826Z,100.00
2022-09-24T00:52:09.689Z,100.00
2022-09-24T00:54:37.547Z,100.00
2022-09-24T00:57:04.437Z,100.00
2022-09-24T00:59:31.318Z,100.00
2022-09-24T01:01:59.590Z,100.00
2022-09-24T01:04:27.475Z,100.00
2022-09-24T01:06:58.311Z,100.00
2022-09-24T01:09:27.354Z,100.00
2022-09-24T01:12:08.047Z,100.00
2022-09-24T01:14:49.208Z,100.00
2022-09-24T01:17:40.705Z,100.00
2022-09-24T01:20:42.572Z,100.00
2022-09-24T01:23:26.287Z,100.00
2022-09-24T01:26:01.272Z,100.00
2022-09-24T01:28:52.845Z,100.00
2022-09-24T01:31:32.518Z,100.00
2022-09-24T01:34:05.754Z,100.00
2022-09-24T01:36:40.808Z,100.00
2022-09-24T01:39:09.037Z,100.00
2022-09-24T01:41:38.585Z,100.00
2022-09-24T01:44:09.592Z,100.00
2022-09-24T01:46:40.723Z,100.00
2022-09-24T01:49:07.760Z,100.00
2022-09-24T01:52:12.688Z,100.00
2022-09-24T01:54:42.991Z,100.00
2022-09-24T01:57:25.719Z,100.00
2022-09-24T02:00:02.453Z,100.00
2022-09-24T02:02:39.741Z,100.00
2022-09-24T02:05:15.719Z,100.00
2022-09-24T02:07:53.061Z,100.00
2022-09-24T02:10:21.017Z,100.00
2022-09-24T02:12:54.532Z,100.00
2022-09-24T02:15:32.283Z,100.00
2022-09-24T02:18:07.761Z,100.00
2022-09-24T02:20:36.146Z,100.00
2022-09-24T02:23:05.572Z,100.00
2022-09-24T02:25:42.260Z,100.00
2022-09-24T02:28:08.968Z,100.00
2022-09-24T02:30:42.076Z,100.00
2022-09-24T02:33:31.653Z,100.00
2022-09-24T02:35:58.707Z,100.00
2022-09-24T02:38:26.669Z,100.00
2022-09-24T02:40:56.364Z,100.00
2022-09-24T02:43:22.976Z,100.00
2022-09-24T02:45:49.466Z,100.00
2022-09-24T02:48:22.509Z,100.00
2022-09-24T02:50:48.964Z,100.00
2022-09-24T02:53:15.460Z,100.00
2022-09-24T02:55:43.729Z,100.00
2022-09-24T02:58:11.664Z,100.00
2022-09-24T03:00:38.841Z,100.00
2022-09-24T03:03:05.559Z,100.00
2022-09-24T03:05:32.327Z,100.00
2022-09-24T03:07:59.048Z,100.00
2022-09-24T03:10:28.050Z,100.00
2022-09-24T03:12:58.188Z,100.00
2022-09-24T03:15:25.857Z,100.00
2022-09-24T03:17:54.056Z,100.00
2022-09-24T03:20:20.596Z,100.00
2022-09-24T03:22:51.650Z,100.00
2022-09-24T03:25:21.125Z,100.00
2022-09-24T03:27:47.670Z,100.00
2022-09-24T03:30:33.342Z,100.00
2022-09-24T03:32:59.873Z,100.00
2022-09-24T03:35:26.414Z,100.00
2022-09-24T03:37:53.027Z,100.00
2022-09-24T03:40:19.524Z,100.00
2022-09-24T03:42:49.557Z,100.00
2022-09-24T03:45:16.295Z,100.00
2022-09-24T03:47:43.454Z,100.00
2022-09-24T03:50:11.683Z,100.00
2022-09-24T03:52:47.867Z,100.00
2022-09-24T03:55:14.448Z,100.00
2022-09-24T03:57:40.935Z,100.00
2022-09-24T04:00:08.284Z,100.00
2022-09-24T04:02:34.848Z,100.00
2022-09-24T04:05:01.793Z,100.00
2022-09-24T04:07:30.475Z,100.00
2022-09-24T04:09:56.945Z,100.00
2022-09-24T04:12:23.797Z,100.00
2022-09-24T04:14:52.481Z,100.00
2022-09-24T04:17:22.585Z,100.00
2022-09-24T04:19:51.116Z,100.00
2022-09-24T04:22:19.376Z,100.00
2022-09-24T04:24:46.148Z,100.00
2022-09-24T04:27:12.613Z,100.00
2022-09-24T04:29:43.673Z,100.00
2022-09-24T04:32:10.186Z,100.00
2022-09-24T04:34:36.683Z,100.00
2022-09-24T04:37:05.442Z,100.00
2022-09-24T04:39:33.898Z,100.00
2022-09-24T04:42:00.390Z,100.00
2022-09-24T04:44:28.131Z,100.00
2022-09-24T04:46:57.995Z,100.00
2022-09-24T04:49:24.527Z,100.00
2022-09-24T04:51:57.523Z,100.00
2022-09-24T04:54:25.596Z,100.00
2022-09-24T04:56:52.192Z,100.00
2022-09-24T04:59:18.670Z,100.00
2022-09-24T05:01:46.395Z,100.00
2022-09-24T05:04:13.201Z,100.00
2022-09-24T05:06:41.507Z,100.00
2022-09-24T05:09:12.310Z,100.00
2022-09-24T05:11:41.026Z,100.00
2022-09-24T05:14:08.561Z,100.00
2022-09-24T05:16:35.217Z,100.00
2022-09-24T05:19:04.544Z,100.00
2022-09-24T05:21:32.050Z,100.00
2022-09-24T05:23:58.780Z,100.00
2022-09-24T05:26:57.711Z,100.00
2022-09-24T05:29:24.686Z,100.00
2022-09-24T05:31:51.223Z,100.00
2022-09-24T05:34:17.958Z,100.00
2022-09-24T05:36:44.657Z,100.00
2022-09-24T05:39:12.088Z,100.00
2022-09-24T05:41:52.379Z,100.00
2022-09-24T05:44:21.833Z,100.00
2022-09-24T05:46:49.419Z,100.00
2022-09-24T05:49:21.317Z,100.00
2022-09-24T05:51:51.199Z,100.00
2022-09-24T05:54:18.659Z,100.00
2022-09-24T05:56:47.697Z,100.00
2022-09-24T05:59:14.285Z,100.00
2022-09-24T06:01:42.181Z,100.00
2022-09-24T06:04:12.336Z,100.00
2022-09-24T06:06:38.849Z,100.00
2022-09-24T06:09:10.064Z,100.00
2022-09-24T06:11:40.831Z,100.00
2022-09-24T06:14:08.809Z,100.00
2022-09-24T06:16:36.386Z,100.00
2022-09-24T06:19:03.314Z,100.00
2022-09-24T06:21:31.623Z,100.00
2022-09-24T06:23:58.112Z,100.00
2022-09-24T06:26:26.523Z,100.00
2022-09-24T06:28:53.163Z,100.00
2022-09-24T06:31:19.833Z,100.00
2022-09-24T06:33:56.892Z,100.00
2022-09-24T06:36:26.537Z,100.00
2022-09-24T06:38:53.074Z,100.00
2022-09-24T06:41:19.909Z,100.00
2022-09-24T06:43:46.654Z,100.00
2022-09-24T06:46:15.719Z,100.00
2022-09-24T06:48:42.918Z,100.00
2022-09-24T06:51:09.405Z,100.00
2022-09-24T06:53:35.981Z,100.00
2022-09-24T06:56:05.351Z,100.00
2022-09-24T06:58:32.136Z,100.00
2022-09-24T07:01:02.322Z,100.00
2022-09-24T07:03:31.591Z,100.00
2022-09-24T07:06:02.360Z,100.00
2022-09-24T07:08:31.589Z,100.00
2022-09-24T07:11:00.857Z,100.00
2022-09-24T07:13:29.838Z,100.00
2022-09-24T07:15:56.462Z,100.00
2022-09-24T07:18:23.246Z,100.00
2022-09-24T07:20:56.644Z,100.00
2022-09-24T07:23:23.993Z,100.00
2022-09-24T07:25:58.458Z,100.00
2022-09-24T07:28:25.393Z,100.00
2022-09-24T07:30:59.979Z,100.00
2022-09-24T07:33:27.137Z,100.00
2022-09-24T07:35:53.914Z,100.00
2022-09-24T07:38:20.838Z,100.00
2022-09-24T07:40:47.504Z,100.00
2022-09-24T07:43:14.697Z,100.00
2022-09-24T07:45:49.928Z,100.00
2022-09-24T07:48:16.532Z,100.00
2022-09-24T07:50:43.116Z,100.00
2022-09-24T07:53:15.260Z,100.00
2022-09-24T07:55:45.424Z,100.00
2022-09-24T07:58:14.052Z,100.00
2022-09-24T08:00:40.910Z,100.00
2022-09-24T08:03:07.542Z,100.00
2022-09-24T08:05:34.532Z,100.00
2022-09-24T08:08:01.359Z,100.00
2022-09-24T08:10:28.383Z,100.00
2022-09-24T08:12:57.154Z,100.00
2022-09-24T08:15:24.087Z,100.00
2022-09-24T08:17:51.139Z,100.00
2022-09-24T08:20:17.971Z,100.00
2022-09-24T08:22:44.932Z,100.00
2022-09-24T08:25:11.476Z,100.00
2022-09-24T08:27:37.992Z,100.00
2022-09-24T08:30:07.759Z,100.00
2022-09-24T08:32:34.553Z,100.00
2022-09-24T08:35:01.117Z,100.00
2022-09-24T08:37:30.785Z,100.00
2022-09-24T08:39:57.503Z,100.00
2022-09-24T08:42:39.360Z,100.00
2022-09-24T08:45:25.671Z,100.00
2022-09-24T08:48:01.344Z,100.00
2022-09-24T08:50:30.445Z,100.00
2022-09-24T08:53:34.316Z,100.00
2022-09-24T08:56:01.451Z,100.00
2022-09-24T08:58:55.418Z,100.00
2022-09-24T09:01:33.140Z,100.00
2022-09-24T09:04:26.790Z,100.00
2022-09-24T09:07:16.382Z,100.00
2022-09-24T09:10:15.703Z,100.00
2022-09-24T09:12:56.970Z,100.00
2022-09-24T09:15:31.188Z,100.00
2022-09-24T09:18:21.572Z,100.00
2022-09-24T09:20:51.697Z,100.00
2022-09-24T09:23:44.509Z,100.00
2022-09-24T09:26:12.363Z,100.00
2022-09-24T09:28:39.151Z,100.00
2022-09-24T09:31:33.522Z,100.00
2022-09-24T09:34:20.309Z,100.00
2022-09-24T09:37:05.272Z,100.00
2022-09-24T09:40:05.493Z,100.00
2022-09-24T09:42:36.240Z,100.00
2022-09-24T09:45:18.060Z,100.00
2022-09-24T09:47:56.247Z,100.00
2022-09-24T09:50:39.463Z,100.00
2022-09-24T09:53:07.819Z,100.00
2022-09-24T09:55:38.301Z,100.00
2022-09-24T09:58:24.524Z,100.00
2022-09-24T10:00:51.499Z,100.00
2022-09-24T10:03:46.629Z,100.00
2022-09-24T10:06:23.728Z,100.00
2022-09-24T10:08:57.891Z,100.00
2022-09-24T10:11:24.369Z,100.00
2022-09-24T10:14:04.828Z,100.00
2022-09-24T10:16:37.841Z,100.00
2022-09-24T10:19:04.589Z,100.00
2022-09-24T10:21:39.209Z,100.00
2022-09-24T10:24:17.545Z,100.00
2022-09-24T10:26:47.531Z,100.00
2022-09-24T10:29:42.648Z,100.00
2022-09-24T10:32:17.861Z,100.00
2022-09-24T10:34:59.172Z,100.00
2022-09-24T10:37:26.458Z,100.00
2022-09-24T10:39:59.990Z,100.00
2022-09-24T10:42:31.158Z,100.00
2022-09-24T10:45:03.582Z,100.00
2022-09-24T10:48:11.997Z,100.00
2022-09-24T10:50:54.566Z,100.00
2022-09-24T10:53:55.215Z,100.00
2022-09-24T10:56:40.936Z,100.00
2022-09-24T10:59:34.864Z,100.00
2022-09-24T11:02:10.179Z,100.00
2022-09-24T11:04:43.254Z,100.00
2022-09-24T11:07:21.878Z,100.00
2022-09-24T11:09:50.102Z,100.00
2022-09-24T11:12:50.657Z,100.00
2022-09-24T11:15:32.667Z,100.00
2022-09-24T11:18:16.170Z,100.00
2022-09-24T11:20:55.197Z,100.00
2022-09-24T11:23:56.168Z,100.00
2022-09-24T11:26:52.317Z,100.00
2022-09-24T11:29:47.773Z,100.00
2022-09-24T11:32:58.747Z,100.00
2022-09-24T11:35:56.708Z,100.00
2022-09-24T11:39:13.188Z,100.00
2022-09-24T11:41:51.775Z,100.00
2022-09-24T11:44:54.965Z,100.00
2022-09-24T11:47:45.756Z,100.00
2022-09-24T11:50:23.525Z,100.00
2022-09-24T11:53:14.186Z,100.00
2022-09-24T11:55:53.506Z,100.00
2022-09-24T11:58:35.087Z,100.00
2022-09-24T12:01:11.411Z,99.21
2022-09-24T12:03:46.903Z,97.46
2022-09-24T12:06:32.716Z,97.02
2022-09-24T12:09:10.495Z,96.00
2022-09-24T12:11:43.414Z,95.35
2022-09-24T12:14:13.877Z,95.09
2022-09-24T12:16:46.194Z,94.55
2022-09-24T12:19:21.323Z,94.22
2022-09-24T12:21:51.371Z,94.15
2022-09-24T12:24:30.361Z,93.84
2022-09-24T12:27:01.199Z,94.82
2022-09-24T12:29:59.310Z,95.14
2022-09-24T12:32:56.597Z,93.93
2022-09-24T12:35:28.921Z,93.31
2022-09-24T12:38:21.626Z,92.10
2022-09-24T12:41:17.907Z,87.56
2022-09-24T12:43:55.646Z,85.72
2022-09-24T12:46:27.421Z,85.53
2022-09-24T12:48:55.046Z,85.78
2022-09-24T12:51:25.250Z,87.05
2022-09-24T12:53:57.527Z,86.18
2022-09-24T12:56:32.124Z,84.93
2022-09-24T12:58:58.799Z,84.79
2022-09-24T13:01:25.408Z,83.26
2022-09-24T13:04:15.017Z,82.32
2022-09-24T13:06:43.841Z,82.90
2022-09-24T13:09:43.254Z,82.80
2022-09-24T13:12:18.120Z,84.21
2022-09-24T13:15:06.848Z,84.91
2022-09-24T13:17:35.392Z,86.18
2022-09-24T13:20:29.454Z,86.64
2022-09-24T13:23:11.294Z,86.74
2022-09-24T13:25:40.242Z,85.80
2022-09-24T13:28:44.918Z,84.70
2022-09-24T13:31:33.609Z,85.05
2022-09-24T13:34:06.173Z,85.70
2022-09-24T13:36:33.120Z,86.46
2022-09-24T13:39:16.497Z,84.79
2022-09-24T13:41:56.564Z,83.90
2022-09-24T13:44:38.573Z,85.72
2022-09-24T13:47:12.166Z,87.24
2022-09-24T13:49:49.630Z,87.52
2022-09-24T13:52:35.521Z,87.46
2022-09-24T13:55:13.373Z,88.04
2022-09-24T13:57:44.604Z,88.26
2022-09-24T14:00:26.442Z,88.27
2022-09-24T14:02:55.528Z,89.04
2022-09-24T14:05:23.211Z,89.18
2022-09-24T14:08:12.689Z,89.65
2022-09-24T14:10:42.043Z,91.51
2022-09-24T14:13:25.243Z,93.13
2022-09-24T14:16:09.039Z,94.28
2022-09-24T14:18:39.374Z,94.05
2022-09-24T14:21:10.482Z,94.82
2022-09-24T14:23:44.303Z,96.14
2022-09-24T14:26:22.793Z,96.49
2022-09-24T14:28:49.690Z,96.12
2022-09-24T14:31:19.733Z,97.32
2022-09-24T14:33:47.059Z,98.43
2022-09-24T14:36:20.604Z,99.66
2022-09-24T14:38:57.985Z,100.00
2022-09-24T14:41:38.888Z,100.00
2022-09-24T14:44:26.040Z,100.00
2022-09-24T14:47:00.378Z,100.00
2022-09-24T14:49:31.122Z,100.00
2022-09-24T14:51:58.510Z,100.00
2022-09-24T14:54:32.877Z,100.00
2022-09-24T14:57:24.467Z,100.00
2022-09-24T14:59:58.495Z,100.00
2022-09-24T15:02:37.087Z,100.00
2022-09-24T15:05:07.514Z,100.00
2022-09-24T15:07:36.495Z,100.00
2022-09-24T15:10:05.010Z,100.00
2022-09-24T15:12:38.296Z,100.00
2022-09-24T15:15:25.130Z,100.00
2022-09-24T15:17:51.863Z,100.00
2022-09-24T15:20:18.366Z,100.00
2022-09-24T15:22:46.934Z,100.00
2022-09-24T15:25:17.896Z,100.00
2022-09-24T15:27:45.083Z,100.00
2022-09-24T15:30:18.806Z,100.00
2022-09-24T15:32:46.004Z,100.00
2022-09-24T15:35:15.621Z,100.00
2022-09-24T15:37:45.506Z,100.00
2022-09-24T15:40:23.070Z,100.00
2022-09-24T15:42:55.473Z,100.00
2022-09-24T15:45:23.984Z,100.00
2022-09-24T15:47:51.824Z,100.00
2022-09-24T15:50:20.323Z,100.00
2022-09-24T15:52:59.723Z,100.00
2022-09-24T15:55:29.493Z,100.00
2022-09-24T15:57:56.051Z,100.00
2022-09-24T16:00:24.569Z,100.00
2022-09-24T16:02:55.281Z,100.00
2022-09-24T16:05:22.775Z,100.00
2022-09-24T16:07:49.484Z,100.00
2022-09-24T16:10:16.669Z,100.00
2022-09-24T16:12:43.842Z,100.00
2022-09-24T16:15:15.788Z,100.00
2022-09-24T16:17:49.040Z,100.00
2022-09-24T16:20:16.477Z,100.00
2022-09-24T16:22:42.958Z,100.00
2022-09-24T16:25:09.816Z,100.00
2022-09-24T16:27:37.280Z,100.00
2022-09-24T16:30:06.807Z,100.00
2022-09-24T16:32:37.942Z,100.00
2022-09-24T16:35:04.732Z,100.00
2022-09-24T16:37:32.035Z,100.00
2022-09-24T16:40:00.316Z,100.00
2022-09-24T16:42:26.834Z,100.00
2022-09-24T16:44:53.451Z,100.00
2022-09-24T16:47:20.810Z,100.00
2022-09-24T16:49:47.800Z,100.00
2022-09-24T16:52:14.295Z,100.00
2022-09-24T16:54:50.558Z,100.00
2022-09-24T16:57:18.393Z,100.00
2022-09-24T16:59:44.895Z,100.00
2022-09-24T17:02:12.747Z,100.00
2022-09-24T17:04:39.858Z,100.00
2022-09-24T17:07:08.633Z,100.00
2022-09-24T17:09:55.285Z,100.00
2022-09-24T17:12:22.146Z,100.00
2022-09-24T17:14:48.652Z,100.00
2022-09-24T17:17:15.367Z,100.00
2022-09-24T17:19:44.638Z,100.00
2022-09-24T17:22:11.122Z,100.00
2022-09-24T17:24:40.071Z,100.00
2022-09-24T17:27:07.926Z,100.00
2022-09-24T17:29:34.571Z,100.00
2022-09-24T17:32:07.091Z,100.00
2022-09-24T17:34:33.606Z,100.00
2022-09-24T17:37:00.092Z,100.00
2022-09-24T17:39:27.940Z,100.00
2022-09-24T17:41:54.506Z,100.00
2022-09-24T17:44:20.999Z,100.00
2022-09-24T17:46:49.366Z,100.00
2022-09-24T17:49:15.945Z,100.00
2022-09-24T17:51:42.430Z,100.00
2022-09-24T17:54:13.822Z,100.00
2022-09-24T17:56:42.329Z,100.00
2022-09-24T17:59:11.178Z,100.00
2022-09-24T18:01:39.530Z,100.00
2022-09-24T18:04:08.132Z,100.00
2022-09-24T18:06:40.082Z,100.00
2022-09-24T18:09:09.148Z,100.00
2022-09-24T18:11:42.659Z,100.00
2022-09-24T18:14:14.822Z,100.00
2022-09-24T18:16:47.009Z,100.00
2022-09-24T18:19:18.633Z,100.00
2022-09-24T18:21:49.307Z,100.00
2022-09-24T18:24:16.587Z,100.00
2022-09-24T18:26:51.378Z,100.00
2022-09-24T18:29:19.342Z,100.00
2022-09-24T18:31:45.880Z,100.00
2022-09-24T18:34:21.397Z,100.00
2022-09-24T18:36:47.870Z,100.00
2022-09-24T18:39:21.979Z,100.00
2022-09-24T18:41:52.360Z,100.00
2022-09-24T18:44:19.725Z,100.00
2022-09-24T18:46:49.850Z,100.00
2022-09-24T18:49:17.605Z,100.00
2022-09-24T18:51:44.078Z,100.00
2022-09-24T18:54:14.636Z,100.00
2022-09-24T18:56:41.659Z,100.00
2022-09-24T18:59:12.898Z,100.00
2022-09-24T19:01:40.501Z,100.00
2022-09-24T19:04:12.313Z,100.00
2022-09-24T19:06:42.030Z,100.00
2022-09-24T19:09:09.632Z,100.00
2022-09-24T19:11:44.870Z,100.00
2022-09-24T19:14:15.079Z,100.00
2022-09-24T19:16:41.937Z,100.00
2022-09-24T19:19:10.035Z,100.00
2022-09-24T19:21:36.834Z,100.00
2022-09-24T19:24:05.938Z,100.00
2022-09-24T19:26:35.303Z,100.00
2022-09-24T19:29:04.833Z,100.00
2022-09-24T19:31:37.478Z,100.00
2022-09-24T19:34:07.935Z,100.00
2022-09-24T19:36:44.392Z,100.00
2022-09-24T19:39:15.378Z,100.00
2022-09-24T19:41:42.851Z,100.00
2022-09-24T19:44:10.813Z,100.00
2022-09-24T19:46:38.562Z,100.00
2022-09-24T19:49:06.382Z,100.00
2022-09-24T19:51:33.939Z,100.00
2022-09-24T19:54:06.498Z,100.00
2022-09-24T19:56:33.432Z,100.00
2022-09-24T19:59:01.566Z,100.00
2022-09-24T20:01:31.340Z,100.00
2022-09-24T20:03:59.679Z,100.00
2022-09-24T20:06:30.670Z,100.00
2022-09-24T20:08:57.360Z,100.00
2022-09-24T20:11:25.632Z,100.00
2022-09-24T20:13:55.072Z,100.00
2022-09-24T20:16:27.194Z,100.00
2022-09-24T20:18:59.110Z,100.00
2022-09-24T20:21:28.427Z,100.00
2022-09-24T20:23:57.537Z,100.00
2022-09-24T20:26:43.467Z,100.00
2022-09-24T20:29:14.338Z,100.00
2022-09-24T20:31:42.592Z,100.00
2022-09-24T20:34:11.505Z,100.00
2022-09-24T20:36:38.190Z,100.00
2022-09-24T20:39:04.719Z,100.00
2022-09-24T20:41:33.603Z,100.00
2022-09-24T20:44:00.145Z,100.00
2022-09-24T20:46:28.624Z,100.00
2022-09-24T20:49:00.076Z,100.00
2022-09-24T20:51:29.284Z,100.00
2022-09-24T20:53:56.201Z,100.00
2022-09-24T20:59:13.136Z,100.00
2022-09-24T21:01:39.723Z,100.00
2022-09-24T21:04:06.396Z,100.00
2022-09-24T21:06:33.107Z,100.00
2022-09-24T21:08:59.591Z,100.00
2022-09-24T21:11:26.873Z,100.00
2022-09-24T21:13:59.364Z,100.00
2022-09-24T21:16:28.962Z,100.00
2022-09-24T21:18:55.701Z,100.00
2022-09-24T21:21:30.636Z,100.00
2022-09-24T21:24:00.021Z,100.00
2022-09-24T21:26:32.013Z,100.00
2022-09-24T21:29:05.167Z,100.00
2022-09-24T21:31:33.376Z,100.00
2022-09-24T21:34:00.505Z,100.00
2022-09-24T21:36:30.779Z,100.00
2022-09-24T21:39:00.095Z,100.00
2022-09-24T21:41:35.661Z,100.00
2022-09-24T21:44:03.222Z,100.00
2022-09-24T21:46:33.495Z,100.00
2022-09-24T21:49:01.445Z,100.00
2022-09-24T21:51:30.073Z,100.00
2022-09-24T21:54:09.536Z,100.00
2022-09-24T21:56:36.466Z,100.00
2022-09-24T21:59:27.465Z,100.00
2022-09-24T22:01:54.999Z,100.00
2022-09-24T22:04:22.009Z,100.00
2022-09-24T22:06:48.957Z,100.00
2022-09-24T22:09:16.060Z,100.00
2022-09-24T22:11:43.485Z,100.00
2022-09-24T22:14:11.899Z,100.00
2022-09-24T22:16:38.735Z,100.00
2022-09-24T22:19:07.080Z,100.00
2022-09-24T22:21:36.334Z,100.00
2022-09-24T22:24:02.905Z,100.00
2022-09-24T22:26:29.825Z,100.00
2022-09-24T22:28:56.992Z,100.00
2022-09-24T22:31:23.813Z,100.00
2022-09-24T22:34:10.835Z,100.00
2022-09-24T22:36:37.528Z,100.00
2022-09-24T22:39:07.230Z,100.00
2022-09-24T22:41:39.578Z,100.00
2022-09-24T22:44:07.083Z,100.00
2022-09-24T22:46:36.067Z,100.00
2022-09-24T22:49:06.572Z,100.00
2022-09-24T22:51:33.978Z,100.00
2022-09-24T22:54:00.875Z,100.00
2022-09-24T22:56:32.350Z,100.00
2022-09-24T22:59:00.792Z,100.00
2022-09-24T23:01:31.441Z,100.00
2022-09-24T23:03:59.119Z,100.00
2022-09-24T23:06:26.255Z,100.00
2022-09-24T23:08:54.892Z,100.00
2022-09-24T23:11:26.405Z,100.00
2022-09-24T23:13:55.622Z,100.00
2022-09-24T23:16:25.524Z,100.00
2022-09-24T23:18:56.338Z,100.00
2022-09-24T23:21:25.540Z,100.00
2022-09-24T23:23:55.877Z,100.00
2022-09-24T23:26:24.071Z,100.00
2022-09-24T23:28:53.732Z,100.00
2022-09-24T23:31:32.105Z,100.00
2022-09-24T23:34:00.806Z,100.00
2022-09-24T23:36:30.995Z,100.00
2022-09-24T23:39:00.595Z,100.00
2022-09-24T23:41:28.986Z,100.00
2022-09-24T23:43:58.342Z,100.00
2022-09-24T23:46:27.688Z,100.00
2022-09-24T23:48:54.517Z,100.00
2022-09-24T23:51:21.022Z,100.00
2022-09-24T23:53:49.737Z,100.00
2022-09-24T23:56:18.255Z,100.00
2022-09-24T23:58:46.095Z,100.00
